Gas Snapper — V7TZ3 — position and weather

sailwx.info

Track history (hours):
 
Tides and Currents Weather Stations Pressure Air Temp Water Temp Dewpoint Dewpoint Depression Visibility Wind Speed Wind Dir Waves Ship Positions

Gas Snapper

Last reported at 2016-Jul-11 04:16 UTC. Time now 2016-Jul-28 18:26 UTC.
Position N 31°23' E 032°19'.
Warning: this ship's position is 17 days out of date.

Length 174 m; draft 10.4 m.

Type: Ship (hazmat cat D). MMSI: 538003911.

Date/timePositionNaut miles runAvg speedWind from/ knotsBaromVisibWave heightAir tempDewpointWater temp
2016-Jul-11 04:16N 31°23' E 032°19'0 0.1
2016-Jul-11 01:33N 31°23' E 032°19'0 0.0
2016-Jul-11 00:33N 31°23' E 032°19'0 0.0
2016-Jul-10 23:33N 31°23' E 032°19'0 0.0
2016-Jul-10 22:33N 31°23' E 032°19'0 0.0
2016-Jul-10 21:33N 31°23' E 032°19'0 0.0
2016-Jul-10 20:33N 31°23' E 032°19'0 0.0
2016-Jul-10 19:30N 31°23' E 032°19'0 0.0
2016-Jul-10 17:33N 31°23' E 032°19'0 0.0
2016-Jul-10 16:33N 31°23' E 032°19'0 0.0
2016-Jul-10 15:24N 31°23' E 032°19'0 0.0
2016-Jul-10 14:33N 31°23' E 032°19'0 0.0
2016-Jul-10 13:33N 31°23' E 032°19'0 0.0
2016-Jul-10 12:33N 31°23' E 032°19'0 0.0
2016-Jul-10 10:30N 31°23' E 032°19'6 6.5
2016-Jul-10 09:33N 31°28' E 032°16'1413.4
2016-Jul-10 08:31N 31°38' E 032°05'1313.5
2016-Jul-10 07:33N 31°47' E 031°54'1413.4
2016-Jul-10 06:32N 31°57' E 031°42'1313.4
2016-Jul-10 05:33N 32°07' E 031°32'1313.3
2016-Jul-10 04:33N 32°16' E 031°21'1313.3
2016-Jul-10 03:33N 32°26' E 031°10'1413.6
2016-Jul-10 02:33N 32°36' E 030°60'1913.6
2016-Jul-10 01:09N 32°51' E 030°45'1013.5
2016-Jul-10 00:26N 32°58' E 030°37'1213.4
2016-Jul-09 23:33N 33°06' E 030°27'1313.3
2016-Jul-09 22:33N 33°16' E 030°17'1513.5
2016-Jul-09 21:29N 33°27' E 030°05'5813.8
2016-Jul-09 17:14N 34°11' E 029°18'25214.2
2016-Jul-08 23:33N 37°17' E 025°49'1414.0
2016-Jul-08 22:33N 37°30' E 025°43'1714.8
2016-Jul-08 21:25N 37°47' E 025°43'  
2016-Jul-05 10:32N 46°25' E 030°55'10 9.5
2016-Jul-05 09:28N 46°34' E 031°00'3 0.1
2016-Jul-04 02:24N 46°37' E 031°01'3 3.8
2016-Jul-04 01:33N 46°34' E 031°00'3 2.7
2016-Jul-04 00:33N 46°31' E 030°59'0 0.0
2016-Jul-03 23:33N 46°31' E 030°59'0 0.0
2016-Jul-03 22:33N 46°31' E 030°59'0 0.0
2016-Jul-03 21:33N 46°31' E 030°59'0 0.0
2016-Jul-03 20:33N 46°31' E 030°59'0 0.0
2016-Jul-03 19:33N 46°31' E 030°59'0 0.0
2016-Jul-03 18:33N 46°31' E 030°59'0 0.0
2016-Jul-03 17:33N 46°31' E 030°59'0 0.0
2016-Jul-03 16:33N 46°32' E 030°59'0 0.0
2016-Jul-03 15:33N 46°32' E 030°59'0 0.0
2016-Jul-03 14:33N 46°32' E 030°59'0 0.0
2016-Jul-03 13:33N 46°32' E 030°59'0 0.0
2016-Jul-03 12:33N 46°32' E 030°59'0 0.0
2016-Jul-03 11:33N 46°32' E 030°59'0 0.0
2016-Jul-03 10:33N 46°32' E 030°59'0 0.0
2016-Jul-03 09:33N 46°32' E 030°59'0 0.0
2016-Jul-03 08:33N 46°32' E 030°59'0 0.1
2016-Jul-03 07:33N 46°31' E 030°59'0 0.0
2016-Jul-03 06:33N 46°31' E 030°59'0 0.0
2016-Jul-03 05:33N 46°31' E 030°59'0 0.0
2016-Jul-03 04:33N 46°31' E 030°59'0 0.0
2016-Jul-03 03:33N 46°31' E 030°59'0 0.0
2016-Jul-03 02:33N 46°31' E 030°59'0 0.0
2016-Jul-03 01:33N 46°31' E 030°59'0 0.0
2016-Jul-03 00:33N 46°31' E 030°59'0 0.0
2016-Jul-02 23:33N 46°31' E 030°59'0 0.0
2016-Jul-02 22:33N 46°31' E 030°59'0 0.1
2016-Jul-02 21:33N 46°31' E 030°59'0 0.0
2016-Jul-02 20:33N 46°31' E 030°59'0 0.0
2016-Jul-02 19:33N 46°31' E 030°59'0 0.0
2016-Jul-02 18:33N 46°31' E 030°59'0 0.0
2016-Jul-02 17:33N 46°31' E 030°59'0 0.0
2016-Jul-02 16:33N 46°31' E 030°59'0 0.0
2016-Jul-02 15:33N 46°32' E 030°59'0 0.0
2016-Jul-02 14:33N 46°32' E 030°59'0 0.0
2016-Jul-02 13:33N 46°32' E 030°59'0 0.0
2016-Jul-02 12:33N 46°32' E 030°59'0 0.0
2016-Jul-02 11:33N 46°32' E 030°59'0 0.0
2016-Jul-02 10:33N 46°32' E 030°59'0 0.1
2016-Jul-02 09:33N 46°32' E 030°59'0 0.1
2016-Jul-02 08:33N 46°31' E 030°59'0 0.0
2016-Jul-02 07:33N 46°31' E 030°59'0 0.0
2016-Jul-02 06:33N 46°31' E 030°59'0 0.0
2016-Jul-02 04:33N 46°31' E 030°59'0 0.0
2016-Jul-02 03:33N 46°31' E 030°59'0 0.0
2016-Jul-02 02:33N 46°31' E 030°59'0 0.0
2016-Jul-02 01:33N 46°31' E 030°59'0 0.0
2016-Jul-02 00:33N 46°31' E 030°59'0 0.1
2016-Jul-01 23:33N 46°31' E 030°59'0 0.0
2016-Jul-01 22:33N 46°31' E 030°59'0 0.0
2016-Jul-01 21:33N 46°31' E 030°59'0 0.0
2016-Jul-01 20:33N 46°31' E 030°59'0 0.0
2016-Jul-01 19:33N 46°31' E 030°59'0 0.1
2016-Jul-01 18:33N 46°31' E 030°59'0 0.0
2016-Jul-01 17:33N 46°31' E 030°59'0 0.1
2016-Jul-01 16:31N 46°31' E 030°59'0 0.0
2016-Jul-01 15:25N 46°31' E 030°59'0 0.0
2016-Jul-01 14:26N 46°31' E 030°59'0 0.0
2016-Jul-01 13:33N 46°31' E 030°59'0 0.0
2016-Jul-01 12:33N 46°31' E 030°59'0 0.0
2016-Jul-01 11:33N 46°31' E 030°59'0 0.0
2016-Jul-01 10:33N 46°31' E 030°59'0 0.0
2016-Jul-01 09:33N 46°31' E 030°59'0 0.0
2016-Jul-01 08:33N 46°31' E 030°59'0 0.0
2016-Jul-01 07:33N 46°31' E 030°59'0 0.1
2016-Jul-01 06:33N 46°31' E 030°59'0 0.0
2016-Jul-01 05:33N 46°31' E 030°59'0 0.0
2016-Jul-01 04:33N 46°31' E 030°59'  
Track history (hours):
 
Tides and Currents Weather Stations Pressure Air Temp Water Temp Dewpoint Dewpoint Depression Visibility Wind Speed Wind Dir Waves Ship Positions

Gas Snapper

Last reported at 2016-Jul-11 04:16 UTC. Time now 2016-Jul-28 18:26 UTC.
Position N 31°23' E 032°19'.
Warning: this ship's position is 17 days out of date.

Length 174 m; draft 10.4 m.

Type: Ship (hazmat cat D). MMSI: 538003911.

Date/timePositionNaut miles runAvg speedWind from/ knotsBaromVisibWave heightAir tempDewpointWater temp
2016-Jul-11 04:16N 31°23' E 032°19'0 0.1
2016-Jul-11 01:33N 31°23' E 032°19'0 0.0
2016-Jul-11 00:33N 31°23' E 032°19'0 0.0
2016-Jul-10 23:33N 31°23' E 032°19'0 0.0
2016-Jul-10 22:33N 31°23' E 032°19'0 0.0
2016-Jul-10 21:33N 31°23' E 032°19'0 0.0
2016-Jul-10 20:33N 31°23' E 032°19'0 0.0
2016-Jul-10 19:30N 31°23' E 032°19'0 0.0
2016-Jul-10 17:33N 31°23' E 032°19'0 0.0
2016-Jul-10 16:33N 31°23' E 032°19'0 0.0
2016-Jul-10 15:24N 31°23' E 032°19'0 0.0
2016-Jul-10 14:33N 31°23' E 032°19'0 0.0
2016-Jul-10 13:33N 31°23' E 032°19'0 0.0
2016-Jul-10 12:33N 31°23' E 032°19'0 0.0
2016-Jul-10 10:30N 31°23' E 032°19'6 6.5
2016-Jul-10 09:33N 31°28' E 032°16'1413.4
2016-Jul-10 08:31N 31°38' E 032°05'1313.5
2016-Jul-10 07:33N 31°47' E 031°54'1413.4
2016-Jul-10 06:32N 31°57' E 031°42'1313.4
2016-Jul-10 05:33N 32°07' E 031°32'1313.3
2016-Jul-10 04:33N 32°16' E 031°21'1313.3
2016-Jul-10 03:33N 32°26' E 031°10'1413.6
2016-Jul-10 02:33N 32°36' E 030°60'1913.6
2016-Jul-10 01:09N 32°51' E 030°45'1013.5
2016-Jul-10 00:26N 32°58' E 030°37'1213.4
2016-Jul-09 23:33N 33°06' E 030°27'1313.3
2016-Jul-09 22:33N 33°16' E 030°17'1513.5
2016-Jul-09 21:29N 33°27' E 030°05'5813.8
2016-Jul-09 17:14N 34°11' E 029°18'25214.2
2016-Jul-08 23:33N 37°17' E 025°49'1414.0
2016-Jul-08 22:33N 37°30' E 025°43'1714.8
2016-Jul-08 21:25N 37°47' E 025°43'  
2016-Jul-05 10:32N 46°25' E 030°55'10 9.5
2016-Jul-05 09:28N 46°34' E 031°00'3 0.1
2016-Jul-04 02:24N 46°37' E 031°01'3 3.8
2016-Jul-04 01:33N 46°34' E 031°00'3 2.7
2016-Jul-04 00:33N 46°31' E 030°59'0 0.0
2016-Jul-03 23:33N 46°31' E 030°59'0 0.0
2016-Jul-03 22:33N 46°31' E 030°59'0 0.0
2016-Jul-03 21:33N 46°31' E 030°59'0 0.0
2016-Jul-03 20:33N 46°31' E 030°59'0 0.0
2016-Jul-03 19:33N 46°31' E 030°59'0 0.0
2016-Jul-03 18:33N 46°31' E 030°59'0 0.0
2016-Jul-03 17:33N 46°31' E 030°59'0 0.0
2016-Jul-03 16:33N 46°32' E 030°59'0 0.0
2016-Jul-03 15:33N 46°32' E 030°59'0 0.0
2016-Jul-03 14:33N 46°32' E 030°59'0 0.0
2016-Jul-03 13:33N 46°32' E 030°59'0 0.0
2016-Jul-03 12:33N 46°32' E 030°59'0 0.0
2016-Jul-03 11:33N 46°32' E 030°59'0 0.0
2016-Jul-03 10:33N 46°32' E 030°59'0 0.0
2016-Jul-03 09:33N 46°32' E 030°59'0 0.0
2016-Jul-03 08:33N 46°32' E 030°59'0 0.1
2016-Jul-03 07:33N 46°31' E 030°59'0 0.0
2016-Jul-03 06:33N 46°31' E 030°59'0 0.0
2016-Jul-03 05:33N 46°31' E 030°59'0 0.0
2016-Jul-03 04:33N 46°31' E 030°59'0 0.0
2016-Jul-03 03:33N 46°31' E 030°59'0 0.0
2016-Jul-03 02:33N 46°31' E 030°59'0 0.0
2016-Jul-03 01:33N 46°31' E 030°59'0 0.0
2016-Jul-03 00:33N 46°31' E 030°59'0 0.0
2016-Jul-02 23:33N 46°31' E 030°59'0 0.0
2016-Jul-02 22:33N 46°31' E 030°59'0 0.1
2016-Jul-02 21:33N 46°31' E 030°59'0 0.0
2016-Jul-02 20:33N 46°31' E 030°59'0 0.0
2016-Jul-02 19:33N 46°31' E 030°59'0 0.0
2016-Jul-02 18:33N 46°31' E 030°59'0 0.0
2016-Jul-02 17:33N 46°31' E 030°59'0 0.0
2016-Jul-02 16:33N 46°31' E 030°59'0 0.0
2016-Jul-02 15:33N 46°32' E 030°59'0 0.0
2016-Jul-02 14:33N 46°32' E 030°59'0 0.0
2016-Jul-02 13:33N 46°32' E 030°59'0 0.0
2016-Jul-02 12:33N 46°32' E 030°59'0 0.0
2016-Jul-02 11:33N 46°32' E 030°59'0 0.0
2016-Jul-02 10:33N 46°32' E 030°59'0 0.1
2016-Jul-02 09:33N 46°32' E 030°59'0 0.1
2016-Jul-02 08:33N 46°31' E 030°59'0 0.0
2016-Jul-02 07:33N 46°31' E 030°59'0 0.0
2016-Jul-02 06:33N 46°31' E 030°59'0 0.0
2016-Jul-02 04:33N 46°31' E 030°59'0 0.0
2016-Jul-02 03:33N 46°31' E 030°59'0 0.0
2016-Jul-02 02:33N 46°31' E 030°59'0 0.0
2016-Jul-02 01:33N 46°31' E 030°59'0 0.0
2016-Jul-02 00:33N 46°31' E 030°59'0 0.1
2016-Jul-01 23:33N 46°31' E 030°59'0 0.0
2016-Jul-01 22:33N 46°31' E 030°59'0 0.0
2016-Jul-01 21:33N 46°31' E 030°59'0 0.0
2016-Jul-01 20:33N 46°31' E 030°59'0 0.0
2016-Jul-01 19:33N 46°31' E 030°59'0 0.1
2016-Jul-01 18:33N 46°31' E 030°59'0 0.0
2016-Jul-01 17:33N 46°31' E 030°59'0 0.1
2016-Jul-01 16:31N 46°31' E 030°59'0 0.0
2016-Jul-01 15:25N 46°31' E 030°59'0 0.0
2016-Jul-01 14:26N 46°31' E 030°59'0 0.0
2016-Jul-01 13:33N 46°31' E 030°59'0 0.0
2016-Jul-01 12:33N 46°31' E 030°59'0 0.0
2016-Jul-01 11:33N 46°31' E 030°59'0 0.0
2016-Jul-01 10:33N 46°31' E 030°59'0 0.0
2016-Jul-01 09:33N 46°31' E 030°59'0 0.0
2016-Jul-01 08:33N 46°31' E 030°59'0 0.0
2016-Jul-01 07:33N 46°31' E 030°59'0 0.1
2016-Jul-01 06:33N 46°31' E 030°59'0 0.0
2016-Jul-01 05:33N 46°31' E 030°59'0 0.0
2016-Jul-01 04:33N 46°31' E 030°59'  

Dump ship's entire track history